sensor_id;sensor_type;location;lat;lon;timestamp;P1;durP1;ratioP1;P2;durP2;ratioP2
75311;SDS011;63906;55.686;37.532;2023-04-19T00:00:52;6.63;;;3.20;;
75311;SDS011;63906;55.686;37.532;2023-04-19T00:05:53;9.32;;;4.53;;
75311;SDS011;63906;55.686;37.532;2023-04-19T00:10:53;7.23;;;4.40;;
75311;SDS011;63906;55.686;37.532;2023-04-19T00:15:54;10.48;;;5.07;;
75311;SDS011;63906;55.686;37.532;2023-04-19T00:20:54;7.80;;;3.92;;
75311;SDS011;63906;55.686;37.532;2023-04-19T00:25:55;9.10;;;4.43;;
75311;SDS011;63906;55.686;37.532;2023-04-19T00:30:56;8.38;;;3.83;;
75311;SDS011;63906;55.686;37.532;2023-04-19T00:35:56;7.97;;;4.28;;
75311;SDS011;63906;55.686;37.532;2023-04-19T00:40:57;7.93;;;4.47;;
75311;SDS011;63906;55.686;37.532;2023-04-19T00:45:58;8.43;;;4.57;;
75311;SDS011;63906;55.686;37.532;2023-04-19T00:50:59;6.45;;;3.78;;
75311;SDS011;63906;55.686;37.532;2023-04-19T00:56:00;5.40;;;3.05;;
75311;SDS011;63906;55.686;37.532;2023-04-19T01:01:03;7.35;;;3.75;;
75311;SDS011;63906;55.686;37.532;2023-04-19T01:06:05;14.20;;;5.70;;
75311;SDS011;63906;55.686;37.532;2023-04-19T01:11:06;7.85;;;5.13;;
75311;SDS011;63906;55.686;37.532;2023-04-19T01:16:09;7.03;;;4.70;;
75311;SDS011;63906;55.686;37.532;2023-04-19T01:21:10;12.38;;;5.55;;
75311;SDS011;63906;55.686;37.532;2023-04-19T01:26:12;9.23;;;5.40;;
75311;SDS011;63906;55.686;37.532;2023-04-19T01:31:12;10.45;;;5.55;;
75311;SDS011;63906;55.686;37.532;2023-04-19T01:36:13;8.73;;;5.65;;
75311;SDS011;63906;55.686;37.532;2023-04-19T01:41:13;8.73;;;5.63;;
75311;SDS011;63906;55.686;37.532;2023-04-19T01:46:14;8.18;;;4.35;;
75311;SDS011;63906;55.686;37.532;2023-04-19T01:51:15;8.13;;;5.33;;
75311;SDS011;63906;55.686;37.532;2023-04-19T01:56:16;14.40;;;6.15;;
75311;SDS011;63906;55.686;37.532;2023-04-19T02:01:17;10.80;;;6.38;;
75311;SDS011;63906;55.686;37.532;2023-04-19T02:06:17;9.57;;;5.50;;
75311;SDS011;63906;55.686;37.532;2023-04-19T02:11:18;7.15;;;5.15;;
75311;SDS011;63906;55.686;37.532;2023-04-19T02:16:18;9.05;;;5.18;;
75311;SDS011;63906;55.686;37.532;2023-04-19T02:21:19;9.90;;;5.60;;
75311;SDS011;63906;55.686;37.532;2023-04-19T02:26:20;9.27;;;5.28;;
75311;SDS011;63906;55.686;37.532;2023-04-19T02:31:21;6.93;;;4.38;;
75311;SDS011;63906;55.686;37.532;2023-04-19T02:36:21;9.60;;;5.05;;
75311;SDS011;63906;55.686;37.532;2023-04-19T02:41:22;9.70;;;6.30;;
75311;SDS011;63906;55.686;37.532;2023-04-19T02:46:22;8.85;;;4.70;;
75311;SDS011;63906;55.686;37.532;2023-04-19T02:51:23;11.40;;;5.57;;
75311;SDS011;63906;55.686;37.532;2023-04-19T02:56:23;16.03;;;6.00;;
75311;SDS011;63906;55.686;37.532;2023-04-19T03:01:24;3.78;;;2.15;;
75311;SDS011;63906;55.686;37.532;2023-04-19T03:06:25;7.10;;;4.55;;
75311;SDS011;63906;55.686;37.532;2023-04-19T03:11:26;8.88;;;4.65;;
75311;SDS011;63906;55.686;37.532;2023-04-19T03:16:26;9.48;;;4.18;;
75311;SDS011;63906;55.686;37.532;2023-04-19T03:21:29;6.68;;;4.70;;
75311;SDS011;63906;55.686;37.532;2023-04-19T03:26:29;11.10;;;4.93;;
75311;SDS011;63906;55.686;37.532;2023-04-19T03:31:30;9.95;;;5.28;;
75311;SDS011;63906;55.686;37.532;2023-04-19T03:36:30;7.32;;;5.13;;
75311;SDS011;63906;55.686;37.532;2023-04-19T03:41:31;9.23;;;5.40;;
75311;SDS011;63906;55.686;37.532;2023-04-19T03:46:32;8.50;;;4.85;;
75311;SDS011;63906;55.686;37.532;2023-04-19T03:51:32;6.97;;;4.57;;
75311;SDS011;63906;55.686;37.532;2023-04-19T03:56:33;10.00;;;5.13;;
75311;SDS011;63906;55.686;37.532;2023-04-19T04:01:33;10.23;;;4.70;;
75311;SDS011;63906;55.686;37.532;2023-04-19T04:06:34;8.27;;;4.80;;
75311;SDS011;63906;55.686;37.532;2023-04-19T04:11:35;6.40;;;3.38;;
75311;SDS011;63906;55.686;37.532;2023-04-19T04:16:35;8.20;;;4.93;;
75311;SDS011;63906;55.686;37.532;2023-04-19T04:21:36;9.25;;;4.93;;
75311;SDS011;63906;55.686;37.532;2023-04-19T04:26:36;9.98;;;5.32;;
75311;SDS011;63906;55.686;37.532;2023-04-19T04:31:38;9.55;;;4.45;;
75311;SDS011;63906;55.686;37.532;2023-04-19T04:36:39;8.80;;;5.18;;
75311;SDS011;63906;55.686;37.532;2023-04-19T04:46:41;8.40;;;5.30;;
75311;SDS011;63906;55.686;37.532;2023-04-19T04:51:42;12.10;;;6.05;;
75311;SDS011;63906;55.686;37.532;2023-04-19T04:56:42;8.32;;;4.88;;
75311;SDS011;63906;55.686;37.532;2023-04-19T05:01:43;12.27;;;5.72;;
75311;SDS011;63906;55.686;37.532;2023-04-19T05:06:44;11.60;;;5.50;;
75311;SDS011;63906;55.686;37.532;2023-04-19T05:11:44;10.60;;;4.85;;
75311;SDS011;63906;55.686;37.532;2023-04-19T05:16:45;8.65;;;3.90;;
75311;SDS011;63906;55.686;37.532;2023-04-19T05:21:45;10.73;;;4.30;;
75311;SDS011;63906;55.686;37.532;2023-04-19T05:26:47;12.10;;;5.10;;
75311;SDS011;63906;55.686;37.532;2023-04-19T05:31:47;10.63;;;5.97;;
75311;SDS011;63906;55.686;37.532;2023-04-19T05:36:48;11.32;;;5.88;;
75311;SDS011;63906;55.686;37.532;2023-04-19T05:41:48;12.43;;;6.30;;
75311;SDS011;63906;55.686;37.532;2023-04-19T05:46:49;9.63;;;5.13;;
75311;SDS011;63906;55.686;37.532;2023-04-19T05:51:50;8.10;;;5.32;;
75311;SDS011;63906;55.686;37.532;2023-04-19T05:56:53;9.50;;;6.05;;
75311;SDS011;63906;55.686;37.532;2023-04-19T06:01:53;13.77;;;6.40;;
75311;SDS011;63906;55.686;37.532;2023-04-19T06:06:55;15.07;;;6.10;;
75311;SDS011;63906;55.686;37.532;2023-04-19T06:11:55;8.73;;;4.28;;
75311;SDS011;63906;55.686;37.532;2023-04-19T06:16:57;19.60;;;6.03;;
75311;SDS011;63906;55.686;37.532;2023-04-19T06:21:57;9.63;;;4.57;;
75311;SDS011;63906;55.686;37.532;2023-04-19T06:26:58;10.40;;;4.95;;
75311;SDS011;63906;55.686;37.532;2023-04-19T06:31:58;8.77;;;4.20;;
75311;SDS011;63906;55.686;37.532;2023-04-19T06:36:59;3.83;;;2.40;;
75311;SDS011;63906;55.686;37.532;2023-04-19T06:41:59;8.70;;;4.85;;
75311;SDS011;63906;55.686;37.532;2023-04-19T06:47:01;11.18;;;4.18;;
75311;SDS011;63906;55.686;37.532;2023-04-19T06:52:02;4.88;;;3.25;;
75311;SDS011;63906;55.686;37.532;2023-04-19T06:57:02;7.90;;;3.40;;
75311;SDS011;63906;55.686;37.532;2023-04-19T07:02:03;7.15;;;4.32;;
75311;SDS011;63906;55.686;37.532;2023-04-19T07:07:04;7.00;;;4.10;;
75311;SDS011;63906;55.686;37.532;2023-04-19T07:12:04;11.05;;;4.72;;
75311;SDS011;63906;55.686;37.532;2023-04-19T07:17:05;6.07;;;2.63;;
75311;SDS011;63906;55.686;37.532;2023-04-19T07:22:11;6.18;;;3.50;;
75311;SDS011;63906;55.686;37.532;2023-04-19T07:27:11;4.78;;;2.72;;
75311;SDS011;63906;55.686;37.532;2023-04-19T07:32:13;7.45;;;3.10;;
75311;SDS011;63906;55.686;37.532;2023-04-19T07:37:14;12.43;;;4.40;;
75311;SDS011;63906;55.686;37.532;2023-04-19T07:42:14;4.75;;;2.45;;
75311;SDS011;63906;55.686;37.532;2023-04-19T07:47:15;5.90;;;3.20;;
75311;SDS011;63906;55.686;37.532;2023-04-19T07:52:15;10.23;;;3.75;;
75311;SDS011;63906;55.686;37.532;2023-04-19T07:57:17;6.07;;;3.58;;
75311;SDS011;63906;55.686;37.532;2023-04-19T08:02:18;3.80;;;2.10;;
75311;SDS011;63906;55.686;37.532;2023-04-19T08:07:18;6.97;;;3.13;;
75311;SDS011;63906;55.686;37.532;2023-04-19T08:12:19;3.67;;;2.30;;
75311;SDS011;63906;55.686;37.532;2023-04-19T08:17:19;11.80;;;3.85;;
75311;SDS011;63906;55.686;37.532;2023-04-19T08:22:23;4.55;;;1.65;;
75311;SDS011;63906;55.686;37.532;2023-04-19T08:27:23;9.95;;;3.75;;
75311;SDS011;63906;55.686;37.532;2023-04-19T08:32:26;3.70;;;2.47;;
75311;SDS011;63906;55.686;37.532;2023-04-19T08:37:26;7.45;;;3.00;;
75311;SDS011;63906;55.686;37.532;2023-04-19T08:42:27;8.30;;;3.25;;
75311;SDS011;63906;55.686;37.532;2023-04-19T08:47:34;7.65;;;3.30;;
75311;SDS011;63906;55.686;37.532;2023-04-19T08:52:36;11.70;;;4.18;;
75311;SDS011;63906;55.686;37.532;2023-04-19T08:57:37;5.97;;;2.65;;
75311;SDS011;63906;55.686;37.532;2023-04-19T09:02:44;5.45;;;2.70;;
75311;SDS011;63906;55.686;37.532;2023-04-19T09:07:48;3.42;;;2.38;;
75311;SDS011;63906;55.686;37.532;2023-04-19T09:13:01;4.80;;;2.33;;
75311;SDS011;63906;55.686;37.532;2023-04-19T09:18:04;6.57;;;3.47;;
75311;SDS011;63906;55.686;37.532;2023-04-19T09:23:07;3.53;;;2.53;;
75311;SDS011;63906;55.686;37.532;2023-04-19T09:28:11;3.65;;;2.85;;
75311;SDS011;63906;55.686;37.532;2023-04-19T09:33:32;8.55;;;2.85;;
75311;SDS011;63906;55.686;37.532;2023-04-19T09:38:46;8.05;;;3.17;;
75311;SDS011;63906;55.686;37.532;2023-04-19T09:43:48;9.48;;;3.35;;
75311;SDS011;63906;55.686;37.532;2023-04-19T09:48:49;5.40;;;2.60;;
75311;SDS011;63906;55.686;37.532;2023-04-19T09:53:50;5.90;;;3.35;;
75311;SDS011;63906;55.686;37.532;2023-04-19T09:58:51;4.55;;;3.30;;
75311;SDS011;63906;55.686;37.532;2023-04-19T10:03:52;4.30;;;2.78;;
75311;SDS011;63906;55.686;37.532;2023-04-19T10:08:53;8.18;;;3.63;;
75311;SDS011;63906;55.686;37.532;2023-04-19T10:13:58;7.95;;;2.80;;
75311;SDS011;63906;55.686;37.532;2023-04-19T10:19:03;8.50;;;4.25;;
75311;SDS011;63906;55.686;37.532;2023-04-19T10:24:08;7.47;;;3.55;;
75311;SDS011;63906;55.686;37.532;2023-04-19T10:29:11;7.35;;;3.60;;
75311;SDS011;63906;55.686;37.532;2023-04-19T10:39:58;11.77;;;4.90;;
75311;SDS011;63906;55.686;37.532;2023-04-19T10:50:22;5.55;;;4.05;;
75311;SDS011;63906;55.686;37.532;2023-04-19T10:55:23;6.50;;;4.40;;
75311;SDS011;63906;55.686;37.532;2023-04-19T11:00:24;4.80;;;3.50;;
75311;SDS011;63906;55.686;37.532;2023-04-19T11:05:26;5.13;;;3.78;;
75311;SDS011;63906;55.686;37.532;2023-04-19T11:10:29;5.95;;;4.00;;
75311;SDS011;63906;55.686;37.532;2023-04-19T11:15:30;5.65;;;3.28;;
75311;SDS011;63906;55.686;37.532;2023-04-19T11:20:31;8.05;;;4.85;;
75311;SDS011;63906;55.686;37.532;2023-04-19T11:25:32;4.97;;;3.40;;
75311;SDS011;63906;55.686;37.532;2023-04-19T11:30:33;5.10;;;3.63;;
75311;SDS011;63906;55.686;37.532;2023-04-19T11:35:34;5.80;;;3.78;;
75311;SDS011;63906;55.686;37.532;2023-04-19T11:40:35;7.20;;;3.65;;
75311;SDS011;63906;55.686;37.532;2023-04-19T11:45:36;5.95;;;3.50;;
75311;SDS011;63906;55.686;37.532;2023-04-19T11:50:38;3.95;;;3.40;;
75311;SDS011;63906;55.686;37.532;2023-04-19T11:55:43;6.10;;;3.47;;
75311;SDS011;63906;55.686;37.532;2023-04-19T12:00:45;7.47;;;3.78;;
75311;SDS011;63906;55.686;37.532;2023-04-19T12:05:56;4.78;;;3.08;;
75311;SDS011;63906;55.686;37.532;2023-04-19T12:10:58;5.40;;;3.28;;
75311;SDS011;63906;55.686;37.532;2023-04-19T12:15:59;4.45;;;3.22;;
75311;SDS011;63906;55.686;37.532;2023-04-19T12:21:00;5.32;;;3.55;;
75311;SDS011;63906;55.686;37.532;2023-04-19T12:26:03;4.75;;;3.20;;
75311;SDS011;63906;55.686;37.532;2023-04-19T12:31:07;4.18;;;3.28;;
75311;SDS011;63906;55.686;37.532;2023-04-19T12:36:08;5.43;;;3.30;;
75311;SDS011;63906;55.686;37.532;2023-04-19T12:41:08;6.30;;;3.10;;
75311;SDS011;63906;55.686;37.532;2023-04-19T12:46:10;3.88;;;2.03;;
75311;SDS011;63906;55.686;37.532;2023-04-19T12:51:10;6.00;;;2.67;;
75311;SDS011;63906;55.686;37.532;2023-04-19T12:56:11;10.02;;;3.75;;
75311;SDS011;63906;55.686;37.532;2023-04-19T13:01:11;4.15;;;3.00;;
75311;SDS011;63906;55.686;37.532;2023-04-19T13:06:12;3.60;;;3.08;;
75311;SDS011;63906;55.686;37.532;2023-04-19T13:11:14;4.15;;;2.75;;
75311;SDS011;63906;55.686;37.532;2023-04-19T13:16:16;6.93;;;3.50;;
75311;SDS011;63906;55.686;37.532;2023-04-19T13:21:17;4.95;;;3.15;;
75311;SDS011;63906;55.686;37.532;2023-04-19T13:26:18;4.53;;;3.17;;
75311;SDS011;63906;55.686;37.532;2023-04-19T13:31:18;4.93;;;2.92;;
75311;SDS011;63906;55.686;37.532;2023-04-19T13:36:19;6.55;;;3.22;;
75311;SDS011;63906;55.686;37.532;2023-04-19T13:46:21;6.87;;;3.50;;
75311;SDS011;63906;55.686;37.532;2023-04-19T13:51:21;3.38;;;2.70;;
75311;SDS011;63906;55.686;37.532;2023-04-19T13:56:22;4.53;;;2.70;;
75311;SDS011;63906;55.686;37.532;2023-04-19T14:01:23;3.42;;;2.83;;
75311;SDS011;63906;55.686;37.532;2023-04-19T14:06:23;4.78;;;3.22;;
75311;SDS011;63906;55.686;37.532;2023-04-19T14:11:24;5.10;;;3.00;;
75311;SDS011;63906;55.686;37.532;2023-04-19T14:16:25;6.25;;;2.50;;
75311;SDS011;63906;55.686;37.532;2023-04-19T14:21:25;3.58;;;2.90;;
75311;SDS011;63906;55.686;37.532;2023-04-19T14:26:27;4.95;;;2.42;;
75311;SDS011;63906;55.686;37.532;2023-04-19T14:31:28;4.50;;;2.70;;
75311;SDS011;63906;55.686;37.532;2023-04-19T14:36:28;7.60;;;3.05;;
75311;SDS011;63906;55.686;37.532;2023-04-19T14:41:29;3.83;;;2.72;;
75311;SDS011;63906;55.686;37.532;2023-04-19T14:46:29;5.25;;;3.15;;
75311;SDS011;63906;55.686;37.532;2023-04-19T14:51:33;5.43;;;2.50;;
75311;SDS011;63906;55.686;37.532;2023-04-19T14:56:36;5.50;;;3.05;;
75311;SDS011;63906;55.686;37.532;2023-04-19T15:01:42;5.47;;;3.05;;
75311;SDS011;63906;55.686;37.532;2023-04-19T15:06:42;4.68;;;2.58;;
75311;SDS011;63906;55.686;37.532;2023-04-19T15:11:43;2.92;;;2.28;;
75311;SDS011;63906;55.686;37.532;2023-04-19T15:16:44;3.90;;;2.30;;
75311;SDS011;63906;55.686;37.532;2023-04-19T15:21:45;3.70;;;2.50;;
75311;SDS011;63906;55.686;37.532;2023-04-19T15:26:46;5.93;;;2.53;;
75311;SDS011;63906;55.686;37.532;2023-04-19T15:31:46;4.30;;;2.97;;
75311;SDS011;63906;55.686;37.532;2023-04-19T15:36:47;6.72;;;3.33;;
75311;SDS011;63906;55.686;37.532;2023-04-19T15:41:48;6.63;;;2.60;;
75311;SDS011;63906;55.686;37.532;2023-04-19T15:46:48;4.03;;;2.30;;
75311;SDS011;63906;55.686;37.532;2023-04-19T15:51:49;4.57;;;2.15;;
75311;SDS011;63906;55.686;37.532;2023-04-19T15:56:50;5.18;;;2.42;;
75311;SDS011;63906;55.686;37.532;2023-04-19T16:01:50;3.70;;;2.75;;
75311;SDS011;63906;55.686;37.532;2023-04-19T16:06:51;5.32;;;2.75;;
75311;SDS011;63906;55.686;37.532;2023-04-19T16:11:51;3.85;;;2.92;;
75311;SDS011;63906;55.686;37.532;2023-04-19T16:16:52;6.05;;;3.05;;
75311;SDS011;63906;55.686;37.532;2023-04-19T16:21:53;5.35;;;2.63;;
75311;SDS011;63906;55.686;37.532;2023-04-19T16:26:53;7.55;;;2.90;;
75311;SDS011;63906;55.686;37.532;2023-04-19T16:31:54;5.40;;;2.70;;
75311;SDS011;63906;55.686;37.532;2023-04-19T16:36:54;3.97;;;2.75;;
75311;SDS011;63906;55.686;37.532;2023-04-19T16:41:55;5.82;;;2.58;;
75311;SDS011;63906;55.686;37.532;2023-04-19T16:46:55;5.40;;;2.80;;
75311;SDS011;63906;55.686;37.532;2023-04-19T16:51:56;5.13;;;2.60;;
75311;SDS011;63906;55.686;37.532;2023-04-19T16:56:57;4.97;;;3.08;;
75311;SDS011;63906;55.686;37.532;2023-04-19T17:01:57;3.63;;;2.70;;
75311;SDS011;63906;55.686;37.532;2023-04-19T17:06:58;6.07;;;3.10;;
75311;SDS011;63906;55.686;37.532;2023-04-19T17:11:58;5.82;;;3.60;;
75311;SDS011;63906;55.686;37.532;2023-04-19T17:16:59;6.78;;;3.28;;
75311;SDS011;63906;55.686;37.532;2023-04-19T17:22:00;8.00;;;3.20;;
75311;SDS011;63906;55.686;37.532;2023-04-19T17:27:04;6.50;;;3.15;;
75311;SDS011;63906;55.686;37.532;2023-04-19T17:32:05;4.45;;;2.50;;
75311;SDS011;63906;55.686;37.532;2023-04-19T17:37:06;5.75;;;2.70;;
75311;SDS011;63906;55.686;37.532;2023-04-19T17:42:06;7.13;;;2.80;;
75311;SDS011;63906;55.686;37.532;2023-04-19T17:47:07;7.47;;;3.40;;
75311;SDS011;63906;55.686;37.532;2023-04-19T17:52:07;5.07;;;3.00;;
75311;SDS011;63906;55.686;37.532;2023-04-19T17:57:08;8.43;;;3.85;;
75311;SDS011;63906;55.686;37.532;2023-04-19T18:02:08;5.03;;;2.80;;
75311;SDS011;63906;55.686;37.532;2023-04-19T18:07:10;5.50;;;2.80;;
75311;SDS011;63906;55.686;37.532;2023-04-19T18:12:11;4.55;;;2.72;;
75311;SDS011;63906;55.686;37.532;2023-04-19T18:17:11;6.82;;;2.78;;
75311;SDS011;63906;55.686;37.532;2023-04-19T18:22:12;9.63;;;3.08;;
75311;SDS011;63906;55.686;37.532;2023-04-19T18:27:13;4.88;;;3.03;;
75311;SDS011;63906;55.686;37.532;2023-04-19T18:32:14;4.78;;;3.10;;
75311;SDS011;63906;55.686;37.532;2023-04-19T18:37:15;6.93;;;2.83;;
75311;SDS011;63906;55.686;37.532;2023-04-19T18:42:16;7.15;;;3.60;;
75311;SDS011;63906;55.686;37.532;2023-04-19T18:47:17;5.20;;;3.05;;
75311;SDS011;63906;55.686;37.532;2023-04-19T18:52:17;9.63;;;2.97;;
75311;SDS011;63906;55.686;37.532;2023-04-19T18:57:18;5.78;;;2.53;;
75311;SDS011;63906;55.686;37.532;2023-04-19T19:02:19;7.85;;;2.78;;
75311;SDS011;63906;55.686;37.532;2023-04-19T19:07:20;4.43;;;2.67;;
75311;SDS011;63906;55.686;37.532;2023-04-19T19:12:31;7.20;;;3.67;;
75311;SDS011;63906;55.686;37.532;2023-04-19T19:17:32;5.40;;;2.67;;
75311;SDS011;63906;55.686;37.532;2023-04-19T19:22:33;6.43;;;3.10;;
75311;SDS011;63906;55.686;37.532;2023-04-19T19:27:33;6.65;;;2.25;;
75311;SDS011;63906;55.686;37.532;2023-04-19T19:32:34;3.72;;;2.33;;
75311;SDS011;63906;55.686;37.532;2023-04-19T19:37:35;7.30;;;2.17;;
75311;SDS011;63906;55.686;37.532;2023-04-19T19:42:36;4.95;;;2.65;;
75311;SDS011;63906;55.686;37.532;2023-04-19T19:47:41;6.93;;;2.65;;
75311;SDS011;63906;55.686;37.532;2023-04-19T19:52:42;5.88;;;3.20;;
75311;SDS011;63906;55.686;37.532;2023-04-19T19:57:43;7.18;;;3.40;;
75311;SDS011;63906;55.686;37.532;2023-04-19T20:02:44;6.10;;;3.30;;
75311;SDS011;63906;55.686;37.532;2023-04-19T20:07:44;5.63;;;2.80;;
75311;SDS011;63906;55.686;37.532;2023-04-19T20:12:45;5.75;;;3.55;;
75311;SDS011;63906;55.686;37.532;2023-04-19T20:17:46;5.03;;;2.42;;
75311;SDS011;63906;55.686;37.532;2023-04-19T20:22:47;4.93;;;2.75;;
75311;SDS011;63906;55.686;37.532;2023-04-19T20:27:47;7.85;;;2.63;;
75311;SDS011;63906;55.686;37.532;2023-04-19T20:32:48;4.60;;;2.20;;
75311;SDS011;63906;55.686;37.532;2023-04-19T20:37:51;4.63;;;2.47;;
75311;SDS011;63906;55.686;37.532;2023-04-19T20:42:53;4.50;;;2.17;;
75311;SDS011;63906;55.686;37.532;2023-04-19T20:47:54;5.68;;;3.08;;
75311;SDS011;63906;55.686;37.532;2023-04-19T20:52:54;5.30;;;2.63;;
75311;SDS011;63906;55.686;37.532;2023-04-19T20:57:55;6.22;;;2.80;;
75311;SDS011;63906;55.686;37.532;2023-04-19T21:02:56;3.38;;;1.90;;
75311;SDS011;63906;55.686;37.532;2023-04-19T21:07:56;7.18;;;2.70;;
75311;SDS011;63906;55.686;37.532;2023-04-19T21:12:57;3.50;;;2.10;;
75311;SDS011;63906;55.686;37.532;2023-04-19T21:17:57;3.53;;;1.85;;
75311;SDS011;63906;55.686;37.532;2023-04-19T21:22:58;10.27;;;2.22;;
75311;SDS011;63906;55.686;37.532;2023-04-19T21:27:59;4.93;;;2.47;;
75311;SDS011;63906;55.686;37.532;2023-04-19T21:32:59;7.28;;;2.75;;
75311;SDS011;63906;55.686;37.532;2023-04-19T21:38:00;4.88;;;2.63;;
75311;SDS011;63906;55.686;37.532;2023-04-19T21:43:01;7.28;;;2.50;;
75311;SDS011;63906;55.686;37.532;2023-04-19T21:48:01;5.20;;;2.70;;
75311;SDS011;63906;55.686;37.532;2023-04-19T21:53:02;6.85;;;2.88;;
75311;SDS011;63906;55.686;37.532;2023-04-19T21:58:02;4.63;;;2.30;;
75311;SDS011;63906;55.686;37.532;2023-04-19T22:03:03;6.40;;;2.75;;
75311;SDS011;63906;55.686;37.532;2023-04-19T22:08:03;6.65;;;2.10;;
75311;SDS011;63906;55.686;37.532;2023-04-19T22:13:04;4.78;;;3.22;;
75311;SDS011;63906;55.686;37.532;2023-04-19T22:18:05;10.98;;;3.30;;
75311;SDS011;63906;55.686;37.532;2023-04-19T22:23:05;4.32;;;2.20;;
75311;SDS011;63906;55.686;37.532;2023-04-19T22:28:06;9.60;;;2.45;;
75311;SDS011;63906;55.686;37.532;2023-04-19T22:33:06;5.57;;;2.80;;
75311;SDS011;63906;55.686;37.532;2023-04-19T22:38:07;5.25;;;2.22;;
75311;SDS011;63906;55.686;37.532;2023-04-19T22:43:07;3.70;;;2.10;;
75311;SDS011;63906;55.686;37.532;2023-04-19T22:48:08;8.02;;;3.08;;
75311;SDS011;63906;55.686;37.532;2023-04-19T22:53:09;6.68;;;2.40;;
75311;SDS011;63906;55.686;37.532;2023-04-19T22:58:11;6.18;;;2.88;;
75311;SDS011;63906;55.686;37.532;2023-04-19T23:03:12;4.95;;;2.60;;
75311;SDS011;63906;55.686;37.532;2023-04-19T23:08:12;6.05;;;2.50;;
75311;SDS011;63906;55.686;37.532;2023-04-19T23:13:14;6.78;;;2.95;;
75311;SDS011;63906;55.686;37.532;2023-04-19T23:18:15;7.90;;;2.47;;
75311;SDS011;63906;55.686;37.532;2023-04-19T23:23:16;3.90;;;2.35;;
75311;SDS011;63906;55.686;37.532;2023-04-19T23:28:19;4.88;;;2.65;;
75311;SDS011;63906;55.686;37.532;2023-04-19T23:33:19;4.20;;;2.60;;
75311;SDS011;63906;55.686;37.532;2023-04-19T23:38:20;5.10;;;2.95;;
75311;SDS011;63906;55.686;37.532;2023-04-19T23:43:21;6.78;;;2.40;;
75311;SDS011;63906;55.686;37.532;2023-04-19T23:48:21;7.93;;;3.10;;
75311;SDS011;63906;55.686;37.532;2023-04-19T23:53:22;3.35;;;2.20;;
75311;SDS011;63906;55.686;37.532;2023-04-19T23:58:23;4.88;;;2.72;;
